createdAt,value
2019-03-22T00:02:07.039Z,21.10
2019-03-22T00:07:02.606Z,21.00
2019-03-22T00:11:57.390Z,22.00
2019-03-22T00:16:56.092Z,20.30
2019-03-22T00:21:52.539Z,20.10
2019-03-22T00:26:47.012Z,21.17
2019-03-22T00:31:43.726Z,22.23
2019-03-22T00:36:39.001Z,20.97
2019-03-22T00:41:35.408Z,21.47
2019-03-22T00:46:30.080Z,22.40
2019-03-22T00:51:24.575Z,20.37
2019-03-22T00:56:19.469Z,20.53
2019-03-22T01:01:18.018Z,21.37
2019-03-22T01:06:14.331Z,20.60
2019-03-22T01:11:08.841Z,19.93
2019-03-22T01:16:07.161Z,19.97
2019-03-22T01:21:01.828Z,19.80
2019-03-22T01:26:01.946Z,19.43
2019-03-22T01:30:57.747Z,20.47
2019-03-22T01:35:51.920Z,21.63
2019-03-22T01:40:49.668Z,19.53
2019-03-22T01:45:48.858Z,19.97
2019-03-22T01:50:47.135Z,20.13
2019-03-22T01:55:42.005Z,20.77
2019-03-22T02:00:47.768Z,19.13
2019-03-22T02:05:45.127Z,21.43
2019-03-22T02:10:44.263Z,20.50
2019-03-22T02:15:40.384Z,21.67
2019-03-22T02:20:39.681Z,18.70
2019-03-22T02:25:34.889Z,19.83
2019-03-22T02:30:33.590Z,19.03
2019-03-22T02:35:29.530Z,19.53
2019-03-22T02:40:26.169Z,21.03
2019-03-22T02:45:21.872Z,19.57
2019-03-22T02:50:19.903Z,19.07
2019-03-22T02:55:17.808Z,20.97
2019-03-22T03:00:18.135Z,19.73
2019-03-22T03:05:15.062Z,19.37
2019-03-22T03:10:18.457Z,19.20
2019-03-22T03:15:18.335Z,20.47
2019-03-22T03:20:15.880Z,20.30
2019-03-22T03:25:15.436Z,19.80
2019-03-22T03:30:14.473Z,20.73
2019-03-22T03:35:10.030Z,20.47
2019-03-22T03:40:07.207Z,18.87
2019-03-22T03:45:15.963Z,19.43
2019-03-22T03:50:10.873Z,19.50
2019-03-22T03:55:07.039Z,20.23
2019-03-22T04:00:05.418Z,20.67
2019-03-22T04:05:06.806Z,19.47
2019-03-22T04:10:06.336Z,21.87
2019-03-22T04:15:05.193Z,20.97
2019-03-22T04:20:04.534Z,20.87
2019-03-22T04:24:59.875Z,20.70
2019-03-22T04:29:59.552Z,20.17
2019-03-22T04:34:55.618Z,21.33
2019-03-22T04:39:52.817Z,18.50
2019-03-22T04:44:48.675Z,19.20
2019-03-22T04:49:45.212Z,20.40
2019-03-22T04:54:41.935Z,20.47
2019-03-22T04:59:47.407Z,19.60
2019-03-22T05:04:45.536Z,21.73
2019-03-22T05:09:44.016Z,18.93
2019-03-22T05:14:41.141Z,21.13
2019-03-22T05:19:47.008Z,19.70
2019-03-22T05:24:49.353Z,21.23
2019-03-22T05:29:45.272Z,19.33
2019-03-22T05:34:47.647Z,19.10
2019-03-22T05:39:42.699Z,18.90
2019-03-22T05:44:43.172Z,19.33
2019-03-22T05:49:40.952Z,19.40
2019-03-22T05:54:37.022Z,17.83
2019-03-22T05:59:41.892Z,16.27
2019-03-22T06:04:30.621Z,15.27
2019-03-22T06:09:25.391Z,14.27
2019-03-22T06:14:20.527Z,15.67
2019-03-22T06:19:18.249Z,14.37
2019-03-22T06:24:12.637Z,14.77
2019-03-22T06:29:08.436Z,13.87
2019-03-22T06:34:07.885Z,14.57
2019-03-22T06:39:05.305Z,14.23
2019-03-22T06:44:04.173Z,13.07
2019-03-22T06:49:02.417Z,13.67
2019-03-22T06:54:01.341Z,13.37
2019-03-22T06:59:02.431Z,14.37
2019-03-22T07:03:58.445Z,14.97
2019-03-22T07:09:01.079Z,14.70
2019-03-22T07:13:59.825Z,15.57
2019-03-22T07:18:56.883Z,15.33
2019-03-22T07:23:52.547Z,15.50
2019-03-22T07:28:50.036Z,15.63
2019-03-22T07:33:45.365Z,14.90
2019-03-22T07:38:42.771Z,15.00
2019-03-22T07:43:37.337Z,15.03
2019-03-22T07:48:39.334Z,16.10
2019-03-22T07:53:34.529Z,16.77
2019-03-22T07:58:30.787Z,14.53
2019-03-22T08:03:29.848Z,15.13
2019-03-22T08:08:27.392Z,17.07
2019-03-22T08:13:23.983Z,14.53
2019-03-22T08:18:25.666Z,12.90
2019-03-22T08:23:25.488Z,14.10
2019-03-22T08:28:24.958Z,11.63
2019-03-22T08:33:21.126Z,15.57
2019-03-22T08:38:17.627Z,16.10
2019-03-22T08:43:18.410Z,17.23
2019-03-22T08:48:18.050Z,17.37
2019-03-22T08:53:19.632Z,17.37
2019-03-22T08:58:36.943Z,16.90
2019-03-22T09:03:35.861Z,18.23
2019-03-22T09:08:35.451Z,18.20
2019-03-22T09:13:31.951Z,17.60
2019-03-22T09:18:34.737Z,19.43
2019-03-22T09:23:35.107Z,19.37
2019-03-22T09:28:36.451Z,16.77
2019-03-22T09:33:33.707Z,18.07
2019-03-22T09:38:33.598Z,19.87
2019-03-22T09:43:40.081Z,19.53
2019-03-22T09:48:43.547Z,20.83
2019-03-22T09:53:41.620Z,21.57
2019-03-22T09:58:40.254Z,19.83
2019-03-22T10:03:34.678Z,20.70
2019-03-22T10:08:33.325Z,21.33
2019-03-22T10:13:29.338Z,19.77
2019-03-22T10:18:24.560Z,22.10
2019-03-22T10:23:31.813Z,23.57
2019-03-22T10:28:32.782Z,25.10
2019-03-22T10:33:29.010Z,24.70
2019-03-22T10:38:31.708Z,24.10
2019-03-22T10:43:29.564Z,77.90
2019-03-22T10:48:28.399Z,22.07
2019-03-22T10:53:32.708Z,21.48
2019-03-22T10:58:33.398Z,27.90
2019-03-22T11:03:33.475Z,26.70
2019-03-22T11:08:37.662Z,35.70
2019-03-22T11:13:37.546Z,32.43
2019-03-22T11:18:37.521Z,26.00
2019-03-22T11:29:01.691Z,24.83
2019-03-22T11:33:58.179Z,23.23
2019-03-22T11:38:58.524Z,26.27
2019-03-22T11:43:54.061Z,23.53
2019-03-22T11:48:56.716Z,24.37
2019-03-22T11:53:52.494Z,28.30
2019-03-22T11:58:52.071Z,30.70
2019-03-22T12:03:57.473Z,29.33
2019-03-22T12:08:54.027Z,31.30
2019-03-22T12:13:54.136Z,30.33
2019-03-22T12:18:50.846Z,31.67
2019-03-22T12:23:49.799Z,30.40
2019-03-22T12:28:45.435Z,29.93
2019-03-22T12:33:40.795Z,29.70
2019-03-22T12:38:40.059Z,28.57
2019-03-22T12:43:44.267Z,29.07
2019-03-22T12:48:44.611Z,29.90
2019-03-22T12:53:45.910Z,26.67
2019-03-22T12:58:42.311Z,28.00
2019-03-22T13:03:46.431Z,28.07
2019-03-22T13:08:44.694Z,28.83
2019-03-22T13:18:50.152Z,26.93
2019-03-22T13:23:46.402Z,29.23
2019-03-22T13:28:48.347Z,27.03
2019-03-22T13:33:44.475Z,27.97
2019-03-22T13:38:39.244Z,25.33
2019-03-22T13:43:39.990Z,27.77
2019-03-22T13:48:42.165Z,28.67
2019-03-22T13:53:37.062Z,26.27
2019-03-22T13:58:41.151Z,29.00
2019-03-22T14:03:37.065Z,26.17
2019-03-22T14:08:36.070Z,24.83
2019-03-22T14:13:31.718Z,24.60
2019-03-22T14:18:29.041Z,26.03
2019-03-22T14:23:25.768Z,23.57
2019-03-22T14:28:31.829Z,24.23
2019-03-22T14:33:26.349Z,23.07
2019-03-22T14:38:22.917Z,28.73
2019-03-22T14:43:17.858Z,22.40
2019-03-22T14:48:17.556Z,21.50
2019-03-22T14:53:13.170Z,19.83
2019-03-22T14:58:09.151Z,20.43
2019-03-22T15:03:09.775Z,20.57
2019-03-22T15:08:06.963Z,20.83
2019-03-22T15:13:07.414Z,22.20
2019-03-22T15:18:12.144Z,21.10
2019-03-22T15:23:17.822Z,20.60
2019-03-22T15:28:30.083Z,21.17
2019-03-22T15:33:34.641Z,21.10
2019-03-22T15:38:50.048Z,20.60
2019-03-22T15:43:46.996Z,19.70
2019-03-22T15:48:51.846Z,20.30
2019-03-22T15:53:53.202Z,21.43
2019-03-22T15:58:55.056Z,21.93
2019-03-22T16:03:53.030Z,23.23
2019-03-22T16:08:49.850Z,24.40
2019-03-22T16:13:47.431Z,23.00
2019-03-22T16:18:43.944Z,23.43
2019-03-22T16:23:41.220Z,24.53
2019-03-22T16:28:36.804Z,23.17
2019-03-22T16:33:34.080Z,22.67
2019-03-22T16:38:29.947Z,21.53
2019-03-22T16:43:29.392Z,22.00
2019-03-22T16:48:27.538Z,19.77
2019-03-22T16:53:26.787Z,18.40
2019-03-22T16:58:21.645Z,17.77
2019-03-22T17:03:18.788Z,19.63
2019-03-22T17:08:20.201Z,17.73
2019-03-22T17:13:19.716Z,18.17
2019-03-22T17:18:24.678Z,19.10
2019-03-22T17:23:28.449Z,18.70
2019-03-22T17:28:27.842Z,17.37
2019-03-22T17:33:23.153Z,37.33
2019-03-22T17:38:23.046Z,17.90
2019-03-22T17:43:25.448Z,18.20
2019-03-22T17:48:22.230Z,18.63
2019-03-22T17:53:20.507Z,21.33
2019-03-22T17:58:16.765Z,20.70
2019-03-22T18:03:15.200Z,19.87
2019-03-22T18:08:11.612Z,22.57
2019-03-22T18:13:06.955Z,73.93
2019-03-22T18:18:06.438Z,29.17
2019-03-22T18:23:02.023Z,58.60
2019-03-22T18:27:59.655Z,39.47
2019-03-22T18:32:57.564Z,23.73
2019-03-22T18:37:55.128Z,22.17
2019-03-22T18:42:52.296Z,21.50
2019-03-22T18:47:49.825Z,22.13
2019-03-22T18:52:50.271Z,22.30
2019-03-22T18:57:48.922Z,22.97
2019-03-22T19:08:07.821Z,22.27
2019-03-22T19:13:07.824Z,21.53
2019-03-22T19:18:07.352Z,21.77
2019-03-22T19:23:09.652Z,21.90
2019-03-22T19:28:07.444Z,21.77
2019-03-22T19:33:04.197Z,25.10
2019-03-22T19:38:01.388Z,25.50
2019-03-22T19:42:57.324Z,28.73
2019-03-22T19:47:56.686Z,29.57
2019-03-22T19:52:52.232Z,28.00
2019-03-22T19:57:50.945Z,28.13
2019-03-22T20:02:49.247Z,27.97
2019-03-22T20:07:42.632Z,28.57
2019-03-22T20:12:37.389Z,33.77
2019-03-22T20:17:37.325Z,28.40
2019-03-22T20:22:37.117Z,29.37
2019-03-22T20:27:32.642Z,30.70
2019-03-22T20:32:27.271Z,31.03
2019-03-22T20:37:25.469Z,30.23
2019-03-22T20:42:20.564Z,42.40
2019-03-22T20:47:19.299Z,30.43
2019-03-22T20:52:23.297Z,31.40
2019-03-22T20:57:22.368Z,34.30
2019-03-22T21:02:25.531Z,45.87
2019-03-22T21:07:20.910Z,40.80
2019-03-22T21:12:17.298Z,35.60
2019-03-22T21:17:16.274Z,34.80
2019-03-22T21:22:12.942Z,32.07
2019-03-22T21:27:15.553Z,34.17
2019-03-22T21:32:09.395Z,33.53
2019-03-22T21:37:04.306Z,36.97
2019-03-22T21:41:59.601Z,51.13
2019-03-22T21:46:58.972Z,35.80
2019-03-22T21:52:01.896Z,60.30
2019-03-22T21:56:59.378Z,38.83
2019-03-22T22:01:56.881Z,36.40
2019-03-22T22:06:51.882Z,35.07
2019-03-22T22:12:09.501Z,37.33
2019-03-22T22:17:07.512Z,36.87
2019-03-22T22:22:02.174Z,37.70
2019-03-22T22:27:13.782Z,39.07
2019-03-22T22:32:02.091Z,35.43
2019-03-22T22:36:59.280Z,35.57
2019-03-22T22:41:56.365Z,37.03
2019-03-22T22:46:51.929Z,36.60
2019-03-22T22:51:48.938Z,38.13
2019-03-22T22:56:47.042Z,41.30
2019-03-22T23:01:44.064Z,40.30
2019-03-22T23:06:42.369Z,45.87
2019-03-22T23:11:38.180Z,39.67
2019-03-22T23:16:34.240Z,38.77
2019-03-22T23:21:32.613Z,38.47
2019-03-22T23:26:31.069Z,38.50
2019-03-22T23:31:26.752Z,36.70
2019-03-22T23:36:26.667Z,37.77
2019-03-22T23:41:22.223Z,38.07
2019-03-22T23:46:20.058Z,37.63
2019-03-22T23:51:14.953Z,39.30
2019-03-22T23:56:09.692Z,43.53
